Time;durP1;ratioP1;P1;durP2;ratioP2;P2;SDS_P1;SDS_P2;PMS_P1;PMS_P2;Temp;Humidity;BMP_temperature;BMP_pressure;BME280_temperature;BME280_humidity;BME280_pressure;Samples;Min_cycle;Max_cycle;Signal;HPM_P1;HPM_P2
2022/10/10 00:02:57;;;;;;;14.60;5.10;;;;;;;5.42;95.56;100870.82;102166;1298;75566;-76
2022/10/10 00:05:45;;;;;;;11.40;4.80;;;;;;;5.43;95.81;100866.77;102215;1299;61080;-76
2022/10/10 00:08:34;;;;;;;16.30;5.10;;;;;;;5.43;95.68;100864.85;101622;1295;1003611;-76
2022/10/10 00:11:23;;;;;;;13.40;5.20;;;;;;;5.42;95.68;100860.30;102279;1299;72052;-75
2022/10/10 00:14:11;;;;;;;13.80;5.50;;;;;;;5.40;95.35;100860.55;102564;1294;66902;-75
2022/10/10 00:16:59;;;;;;;14.10;5.80;;;;;;;5.37;95.70;100864.91;102340;1291;74399;-75
2022/10/10 00:19:46;;;;;;;13.30;5.40;;;;;;;5.35;95.38;100862.70;102357;1302;60509;-75
2022/10/10 00:22:34;;;;;;;13.70;5.40;;;;;;;5.33;95.35;100858.94;102341;1292;61857;-73
2022/10/10 00:25:22;;;;;;;14.30;4.80;;;;;;;5.33;95.93;100860.16;102283;1299;72587;-75
2022/10/10 00:28:11;;;;;;;14.60;5.40;;;;;;;5.32;95.66;100856.67;102336;1294;67330;-76
2022/10/10 00:30:59;;;;;;;13.00;5.20;;;;;;;5.32;95.62;100852.28;102313;1301;73246;-75
2022/10/10 00:33:47;;;;;;;15.80;5.10;;;;;;;5.33;95.32;100849.43;102292;1299;59277;-75
2022/10/10 00:36:35;;;;;;;14.30;5.30;;;;;;;5.33;95.32;100851.88;102338;1289;60564;-76
2022/10/10 00:39:23;;;;;;;12.90;4.90;;;;;;;5.33;95.54;100852.05;102324;1297;72236;-75
2022/10/10 00:42:13;;;;;;;12.60;5.00;;;;;;;5.34;95.25;100855.90;102322;1299;69317;-75
2022/10/10 00:45:27;;;;;;;11.80;5.10;;;;;;;5.33;94.86;100850.83;102493;1296;74069;-75
2022/10/10 00:48:42;;;;;;;16.40;6.20;;;;;;;5.31;95.09;100849.14;102307;1298;59935;-75
2022/10/10 00:51:30;;;;;;;12.90;4.80;;;;;;;5.28;95.32;100850.16;102302;1299;60749;-76
2022/10/10 00:54:21;;;;;;;15.80;5.30;;;;;;;5.26;95.38;100852.70;102310;1294;70892;-78
2022/10/10 00:57:13;;;;;;;15.30;5.40;;;;;;;5.24;95.41;100854.54;102269;1296;69241;-77
2022/10/10 01:00:03;;;;;;;14.10;5.90;;;;;;;5.23;95.27;100853.73;102304;1294;74245;-76
2022/10/10 01:02:50;;;;;;;14.30;5.50;;;;;;;5.22;95.10;100854.98;102243;1295;59565;-77
2022/10/10 01:05:42;;;;;;;12.30;5.20;;;;;;;5.21;95.18;100856.77;102316;1294;61627;-76
2022/10/10 01:08:30;;;;;;;13.60;5.50;;;;;;;5.21;95.30;100855.04;102268;1294;73677;-76
2022/10/10 01:11:21;;;;;;;12.80;4.70;;;;;;;5.20;94.79;100855.06;102340;1299;69396;-76
2022/10/10 01:14:33;;;;;;;12.10;4.60;;;;;;;5.20;95.10;100848.75;102412;1299;73954;-77
2022/10/10 01:17:58;;;;;;;13.80;4.80;;;;;;;5.19;95.25;100843.85;102733;1301;60195;-76
2022/10/10 01:21:08;;;;;;;11.70;4.50;;;;;;;5.18;95.40;100841.46;102412;1294;60865;-76
2022/10/10 01:24:28;;;;;;;13.40;4.90;;;;;;;5.17;95.30;100838.86;102343;1295;73017;-76
2022/10/10 01:27:28;;;;;;;11.70;4.40;;;;;;;5.16;95.13;100839.92;102519;1299;66511;-76
2022/10/10 01:30:23;;;;;;;12.50;4.10;;;;;;;5.17;95.54;100834.11;102275;1290;73372;-76
2022/10/10 01:33:20;;;;;;;10.80;3.80;;;;;;;5.17;95.52;100835.01;102359;1292;61077;-76
2022/10/10 01:36:31;;;;;;;14.40;4.90;;;;;;;5.17;95.36;100833.02;102234;1295;60853;-76
2022/10/10 01:39:44;;;;;;;9.80;4.10;;;;;;;5.19;95.52;100827.52;102301;1298;72812;-77
2022/10/10 01:42:41;;;;;;;10.10;3.60;;;;;;;5.19;95.11;100826.63;102357;1295;69406;-75
2022/10/10 01:45:30;;;;;;;10.10;3.80;;;;;;;5.18;95.56;100821.20;102333;1290;72558;-75
2022/10/10 01:48:27;;;;;;;11.40;4.00;;;;;;;5.16;95.50;100819.20;102324;1299;59299;-75
2022/10/10 01:51:50;;;;;;;11.10;3.90;;;;;;;5.15;95.45;100816.60;102350;1297;59418;-77
2022/10/10 01:55:04;;;;;;;9.80;4.20;;;;;;;5.12;95.38;100816.34;102007;1305;73045;-75
2022/10/10 01:58:09;;;;;;;10.10;3.90;;;;;;;5.12;95.75;100809.34;101760;1306;67826;-76
2022/10/10 02:01:16;;;;;;;10.10;4.30;;;;;;;5.11;95.74;100818.34;101755;1298;74163;-76
2022/10/10 02:04:25;;;;;;;13.30;4.50;;;;;;;5.10;95.45;100813.63;101768;1310;59842;-76
2022/10/10 02:07:30;;;;;;;14.40;4.70;;;;;;;5.08;95.79;100815.31;101960;1305;60774;-75
2022/10/10 02:10:27;;;;;;;10.40;4.30;;;;;;;5.05;95.76;100818.79;101973;1303;73637;-75
2022/10/10 02:13:18;;;;;;;15.60;4.60;;;;;;;5.00;95.83;100823.55;101954;1298;67623;-76
2022/10/10 02:16:14;;;;;;;11.10;4.00;;;;;;;4.94;95.87;100827.13;101938;1303;73510;-75
2022/10/10 02:19:07;;;;;;;11.70;5.00;;;;;;;4.89;95.85;100830.70;101781;1306;59307;-75
2022/10/10 02:21:55;;;;;;;15.40;5.10;;;;;;;4.85;96.75;100827.72;101751;1305;61684;-75
2022/10/10 02:24:43;;;;;;;15.10;5.00;;;;;;;4.82;97.13;100827.66;101483;1311;73573;-75
2022/10/10 02:27:48;;;;;;;12.70;4.70;;;;;;;4.80;97.67;100827.55;101454;1309;69307;-75
2022/10/10 02:30:43;;;;;;;13.70;5.00;;;;;;;4.78;98.14;100823.76;101794;1305;71483;-75
2022/10/10 02:34:00;;;;;;;14.40;5.80;;;;;;;4.75;98.41;100827.92;102250;1292;59842;-76
2022/10/10 02:36:54;;;;;;;11.90;5.60;;;;;;;4.71;98.36;100824.76;102224;1292;60807;-75
2022/10/10 02:39:50;;;;;;;11.70;5.00;;;;;;;4.68;98.35;100818.39;102439;1298;72095;-76
2022/10/10 02:42:39;;;;;;;14.00;5.10;;;;;;;4.67;98.70;100819.11;102280;1299;67782;-76
2022/10/10 02:45:27;;;;;;;13.10;5.40;;;;;;;4.67;98.85;100818.80;102204;1299;74339;-76
2022/10/10 02:48:15;;;;;;;13.60;5.10;;;;;;;4.66;99.13;100817.39;102087;1291;59272;-76
2022/10/10 02:51:05;;;;;;;16.10;5.20;;;;;;;4.66;99.41;100820.56;102277;1299;60348;-76
2022/10/10 02:53:53;;;;;;;13.10;5.50;;;;;;;4.65;99.27;100820.08;102303;1291;73624;-76
2022/10/10 02:56:40;;;;;;;11.70;5.30;;;;;;;4.64;98.78;100816.61;100299;1299;1002949;-78
2022/10/10 02:59:28;;;;;;;15.40;4.80;;;;;;;4.62;98.66;100815.66;102288;1299;73090;-77
2022/10/10 03:02:16;;;;;;;16.90;6.60;;;;;;;4.59;99.19;100814.86;102223;1299;59348;-78
2022/10/10 03:05:05;;;;;;;16.90;6.40;;;;;;;4.58;99.21;100811.20;102289;1292;61851;-76
2022/10/10 03:07:52;;;;;;;18.90;6.80;;;;;;;4.57;98.83;100808.61;102305;1298;71536;-79
2022/10/10 03:13:47;;;;;;;13.60;6.70;;;;;;;4.55;98.73;100805.90;102323;1289;74078;-77
2022/10/10 03:16:35;;;;;;;15.10;6.10;;;;;;;4.54;98.53;100803.80;102314;1295;60097;-77
2022/10/10 03:19:23;;;;;;;14.60;6.10;;;;;;;4.55;98.92;100801.86;102150;1299;59859;-77
2022/10/10 03:22:11;;;;;;;14.80;5.80;;;;;;;4.55;98.93;100803.42;102336;1299;73993;-77
2022/10/10 03:24:59;;;;;;;15.60;6.40;;;;;;;4.57;98.77;100806.89;102199;1291;67483;-76
2022/10/10 03:27:47;;;;;;;16.40;6.30;;;;;;;4.55;98.71;100801.86;102269;1286;72802;-75
2022/10/10 03:30:36;;;;;;;16.00;6.10;;;;;;;4.54;98.66;100799.25;102322;1299;59474;-75
2022/10/10 03:33:24;;;;;;;15.00;6.40;;;;;;;4.51;98.82;100796.54;102259;1297;60867;-76
2022/10/10 03:36:13;;;;;;;15.10;6.50;;;;;;;4.49;98.82;100795.08;102317;1291;70901;-76
2022/10/10 03:39:01;;;;;;;16.00;6.60;;;;;;;4.47;99.44;100795.14;102290;1292;69291;-76
2022/10/10 03:41:49;;;;;;;16.70;6.90;;;;;;;4.47;99.17;100798.86;102518;1299;73495;-76
2022/10/10 03:44:37;;;;;;;15.50;7.10;;;;;;;4.46;99.14;100793.96;102362;1291;59373;-76
2022/10/10 03:47:25;;;;;;;18.40;6.70;;;;;;;4.45;99.42;100793.31;102288;1295;61831;-76
2022/10/10 03:50:13;;;;;;;16.60;7.10;;;;;;;4.44;99.46;100790.16;102284;1290;73597;-76
2022/10/10 03:53:01;;;;;;;14.80;6.70;;;;;;;4.43;99.50;100790.58;102271;1298;66411;-76
2022/10/10 03:55:49;;;;;;;15.50;5.90;;;;;;;4.43;99.56;100793.89;102293;1298;74269;-78
2022/10/10 03:58:37;;;;;;;14.60;6.70;;;;;;;4.40;99.57;100796.13;102390;1294;60307;-77
2022/10/10 04:01:26;;;;;;;18.10;7.20;;;;;;;4.38;99.72;100795.70;102308;1298;59432;-77
2022/10/10 04:04:15;;;;;;;15.10;7.00;;;;;;;4.36;99.83;100790.14;102227;1298;72034;-76
2022/10/10 04:07:03;;;;;;;16.50;6.80;;;;;;;4.36;99.95;100792.79;102317;1295;69519;-77
2022/10/10 04:09:51;;;;;;;17.90;7.50;;;;;;;4.36;99.95;100792.98;102308;1291;73068;-75
2022/10/10 04:12:39;;;;;;;18.40;7.70;;;;;;;4.35;99.97;100792.11;102575;1299;59831;-77
2022/10/10 04:15:27;;;;;;;16.30;7.90;;;;;;;4.34;99.90;100792.16;102559;1299;60653;-77
2022/10/10 04:18:17;;;;;;;16.10;7.60;;;;;;;4.32;99.73;100791.00;102640;1295;72199;-77
2022/10/10 04:21:06;;;;;;;19.50;8.20;;;;;;;4.31;99.67;100791.58;102380;1291;69601;-76
2022/10/10 04:23:54;;;;;;;24.90;8.70;;;;;;;4.29;99.39;100791.13;102346;1283;71015;-76
2022/10/10 04:26:42;;;;;;;19.60;8.00;;;;;;;4.27;99.41;100791.02;102330;1298;59393;-78
2022/10/10 04:29:30;;;;;;;17.00;7.50;;;;;;;4.25;99.51;100788.46;102391;1299;61121;-76
2022/10/10 04:32:18;;;;;;;15.50;6.70;;;;;;;4.21;99.52;100787.05;102422;1297;72578;-75
2022/10/10 04:35:06;;;;;;;20.30;8.30;;;;;;;4.16;99.71;100785.33;102443;1294;66448;-77
2022/10/10 04:37:54;;;;;;;21.10;9.10;;;;;;;4.12;99.50;100781.10;102317;1291;72551;-76
2022/10/10 04:40:42;;;;;;;18.40;8.70;;;;;;;4.09;99.80;100780.33;102187;1300;59288;-77
2022/10/10 04:43:30;;;;;;;18.40;8.70;;;;;;;4.07;99.81;100776.33;103232;1299;60403;-76
2022/10/10 04:46:18;;;;;;;19.50;8.10;;;;;;;4.06;99.76;100772.55;103047;1295;73868;-78
2022/10/10 04:49:06;;;;;;;19.70;8.50;;;;;;;4.05;99.91;100768.70;102415;1295;69129;-77
2022/10/10 04:51:54;;;;;;;20.50;8.30;;;;;;;4.05;99.98;100767.82;101908;1296;1002843;-77
2022/10/10 04:54:42;;;;;;;23.00;9.40;;;;;;;4.07;100.00;100768.08;102349;1297;59265;-77
2022/10/10 04:57:30;;;;;;;18.80;7.90;;;;;;;4.11;100.00;100765.64;102495;1295;59261;-79
2022/10/10 05:00:17;;;;;;;19.90;8.00;;;;;;;4.16;100.00;100758.27;102594;1292;73838;-78
2022/10/10 05:03:06;;;;;;;16.50;6.60;;;;;;;4.20;100.00;100758.29;102469;1290;66214;-77
2022/10/10 05:05:54;;;;;;;19.60;7.90;;;;;;;4.24;100.00;100756.35;102530;1291;73341;-78
2022/10/10 05:08:42;;;;;;;17.70;7.60;;;;;;;4.29;100.00;100755.83;102439;1292;59734;-79
2022/10/10 05:11:30;;;;;;;20.00;8.60;;;;;;;4.32;100.00;100753.40;102625;1288;59258;-78
2022/10/10 05:14:18;;;;;;;22.00;8.60;;;;;;;4.36;100.00;100752.70;102351;1294;72076;-78
2022/10/10 05:17:07;;;;;;;18.10;8.60;;;;;;;4.40;100.00;100753.95;102667;1290;67762;-77
2022/10/10 05:19:55;;;;;;;21.50;8.40;;;;;;;4.44;100.00;100753.98;102444;1289;70014;-78
2022/10/10 05:22:44;;;;;;;19.70;8.90;;;;;;;4.48;100.00;100752.77;102529;1299;59371;-79
2022/10/10 05:25:31;;;;;;;20.50;8.50;;;;;;;4.52;100.00;100749.27;102327;1298;354117;-77
2022/10/10 05:28:20;;;;;;;15.40;8.40;;;;;;;4.56;100.00;100742.59;102470;1291;73230;-78
2022/10/10 05:31:08;;;;;;;20.90;7.50;;;;;;;4.59;100.00;100735.59;102655;1283;68192;-76
2022/10/10 05:33:56;;;;;;;22.20;8.40;;;;;;;4.64;100.00;100736.80;102602;1297;74041;-78
2022/10/10 05:36:44;;;;;;;20.80;9.00;;;;;;;4.69;100.00;100734.68;102435;1297;59166;-77
2022/10/10 05:39:32;;;;;;;19.10;8.60;;;;;;;4.75;100.00;100733.71;102505;1291;60173;-81
2022/10/10 05:42:21;;;;;;;21.60;8.90;;;;;;;4.85;100.00;100736.98;102523;1294;72006;-78
2022/10/10 05:45:09;;;;;;;15.90;7.40;;;;;;;4.95;100.00;100735.99;102432;1299;69373;-80
2022/10/10 05:47:57;;;;;;;19.60;8.30;;;;;;;5.06;100.00;100734.11;102387;1292;74253;-80
2022/10/10 05:50:49;;;;;;;19.60;8.30;;;;;;;5.17;100.00;100736.44;102433;1298;59463;-78
2022/10/10 05:53:38;;;;;;;17.40;8.20;;;;;;;5.28;99.99;100735.26;102435;1299;60639;-77
2022/10/10 05:56:26;;;;;;;16.00;7.90;;;;;;;5.37;99.97;100731.14;102669;1298;72400;-74
2022/10/10 05:59:13;;;;;;;18.20;8.20;;;;;;;5.46;99.79;100730.92;102740;1292;69205;-77
2022/10/10 06:02:01;;;;;;;21.00;7.70;;;;;;;5.55;99.80;100725.03;102401;1294;71379;-80
2022/10/10 06:04:51;;;;;;;15.10;6.80;;;;;;;5.64;98.93;100717.58;102603;1292;60994;-79
2022/10/10 06:07:39;;;;;;;15.50;7.90;;;;;;;5.73;98.78;100716.66;102438;1294;60784;-80
2022/10/10 06:10:47;;;;;;;15.10;7.10;;;;;;;5.82;98.29;100717.29;103639;1291;70908;-76
2022/10/10 06:13:37;;;;;;;15.20;7.90;;;;;;;5.89;97.73;100722.23;103000;1297;68251;-80
2022/10/10 06:16:28;;;;;;;14.40;7.10;;;;;;;5.98;97.17;100720.80;102493;1298;71643;-80
2022/10/10 06:19:20;;;;;;;19.30;7.10;;;;;;;6.06;96.31;100722.19;102428;1298;59450;-81
2022/10/10 06:22:07;;;;;;;16.80;7.90;;;;;;;6.14;95.96;100722.15;102435;1299;60503;-80
2022/10/10 06:24:56;;;;;;;20.70;8.70;;;;;;;6.20;95.53;100720.63;102292;1297;71646;-81
2022/10/10 06:27:43;;;;;;;16.90;8.10;;;;;;;6.26;95.26;100719.27;102339;1298;69138;-79
2022/10/10 06:30:33;;;;;;;16.60;8.60;;;;;;;6.32;94.49;100723.70;102471;1292;73031;-80
2022/10/10 06:33:21;;;;;;;16.50;8.20;;;;;;;6.40;94.16;100714.48;102424;1299;59279;-81
2022/10/10 06:36:10;;;;;;;18.40;8.10;;;;;;;6.51;93.84;100715.05;102552;1291;59379;-79
2022/10/10 06:38:59;;;;;;;17.30;7.60;;;;;;;6.61;93.42;100705.70;102421;1299;71918;-81
2022/10/10 06:41:50;;;;;;;14.50;7.00;;;;;;;6.74;92.00;100709.45;102506;1294;69213;-80
2022/10/10 06:44:38;;;;;;;16.90;6.30;;;;;;;7.03;90.54;100702.64;102464;1292;72597;-79
2022/10/10 06:47:27;;;;;;;16.40;7.00;;;;;;;8.04;86.55;100706.33;102506;1290;60417;-82
2022/10/10 06:50:15;;;;;;;14.90;6.60;;;;;;;9.92;80.93;100690.92;102549;1291;59639;-80
2022/10/10 06:53:05;;;;;;;12.70;6.00;;;;;;;11.59;71.18;100684.54;102407;1297;70949;-79
2022/10/10 06:55:54;;;;;;;15.30;6.10;;;;;;;12.95;64.39;100672.48;102614;1295;67517;-80
2022/10/10 06:58:43;;;;;;;14.60;5.80;;;;;;;14.09;59.62;100667.30;102432;1299;71222;-81
2022/10/10 07:01:31;;;;;;;12.30;4.70;;;;;;;14.97;54.96;100665.08;102551;1291;59248;-83
2022/10/10 07:04:19;;;;;;;10.70;4.50;;;;;;;15.53;51.81;100666.61;102614;1274;59255;-81
2022/10/10 07:07:08;;;;;;;11.90;5.20;;;;;;;15.99;49.99;100664.39;102668;1292;72249;-79
2022/10/10 07:09:56;;;;;;;11.60;5.10;;;;;;;16.50;48.48;100655.88;102495;1288;69086;-78
2022/10/10 07:12:44;;;;;;;9.80;4.20;;;;;;;16.79;47.11;100655.20;102645;1297;71351;-81
2022/10/10 07:15:31;;;;;;;11.80;4.80;;;;;;;17.00;46.21;100652.86;102526;1299;59305;-79
2022/10/10 07:18:20;;;;;;;9.70;4.80;;;;;;;17.00;45.48;100656.73;102423;1299;59387;-79
2022/10/10 07:21:09;;;;;;;13.20;5.30;;;;;;;17.52;44.71;100653.94;102461;1292;72075;-80
2022/10/10 07:23:57;;;;;;;12.20;4.80;;;;;;;18.00;43.87;100655.17;102421;1299;67535;-80
2022/10/10 07:26:45;;;;;;;12.90;5.10;;;;;;;18.36;42.88;100646.38;102552;1291;74188;-79
2022/10/10 07:29:33;;;;;;;11.40;4.70;;;;;;;18.63;41.84;100645.64;102633;1289;59932;-78
2022/10/10 07:32:21;;;;;;;11.90;5.00;;;;;;;18.97;41.11;100643.91;102580;1291;59554;-80
2022/10/10 07:35:10;;;;;;;11.10;4.90;;;;;;;19.07;40.45;100640.42;102597;1298;71011;-81
2022/10/10 07:37:58;;;;;;;9.20;4.30;;;;;;;19.46;39.87;100637.20;102628;1291;69284;-81
2022/10/10 07:40:46;;;;;;;12.50;4.90;;;;;;;19.89;39.29;100635.73;102498;1298;74250;-81
2022/10/10 07:43:36;;;;;;;12.20;4.70;;;;;;;20.04;38.77;100634.58;102553;1297;59301;-79
2022/10/10 07:46:24;;;;;;;10.30;4.40;;;;;;;20.43;37.88;100634.89;102676;1289;59292;-79
2022/10/10 07:49:12;;;;;;;11.20;4.40;;;;;;;20.49;37.96;100625.62;102420;1295;74363;-80
2022/10/10 07:52:00;;;;;;;12.50;4.70;;;;;;;20.69;37.55;100628.73;102491;1291;67703;-80
2022/10/10 07:54:48;;;;;;;12.20;4.80;;;;;;;20.62;37.18;100623.08;102485;1298;72446;-79
2022/10/10 07:57:37;;;;;;;12.20;4.80;;;;;;;20.58;37.52;100619.16;102442;1298;59235;-79
2022/10/10 08:00:25;;;;;;;11.90;4.70;;;;;;;20.96;37.38;100611.02;102539;1299;59296;-79
2022/10/10 08:03:16;;;;;;;12.30;4.70;;;;;;;21.63;36.62;100609.28;102555;1297;73424;-80
2022/10/10 08:06:12;;;;;;;12.00;4.50;;;;;;;21.72;35.87;100602.63;102508;1299;66012;-80
2022/10/10 08:09:03;;;;;;;11.00;4.20;;;;;;;21.50;35.53;100609.36;102736;1299;71213;-79
2022/10/10 08:11:51;;;;;;;10.00;3.90;;;;;;;21.10;36.34;100602.92;102649;1291;59308;-79
2022/10/10 08:14:42;;;;;;;8.30;3.90;;;;;;;21.03;36.90;100598.15;102578;1299;59273;-79
2022/10/10 08:17:30;;;;;;;11.00;4.00;;;;;;;20.56;37.61;100596.52;102696;1297;72129;-79
2022/10/10 08:20:18;;;;;;;9.70;3.90;;;;;;;21.02;37.10;100590.67;102546;1297;68292;-80
2022/10/10 08:23:06;;;;;;;13.10;4.90;;;;;;;21.35;36.71;100588.83;102521;1291;71181;-79
2022/10/10 08:25:59;;;;;;;11.10;4.70;;;;;;;21.44;36.14;100581.85;102554;1299;59279;-79
2022/10/10 08:28:47;;;;;;;9.20;3.60;;;;;;;21.28;36.19;100579.55;102447;1299;60163;-78
2022/10/10 08:31:35;;;;;;;9.90;4.30;;;;;;;21.60;35.95;100570.49;102570;1299;72069;-81
2022/10/10 08:34:23;;;;;;;10.60;4.40;;;;;;;21.80;35.35;100575.18;102463;1297;67496;-80
2022/10/10 08:37:11;;;;;;;10.40;4.00;;;;;;;22.28;34.85;100566.48;102795;1298;73033;-78
2022/10/10 08:39:59;;;;;;;10.20;4.30;;;;;;;22.20;34.32;100566.92;102570;1297;59468;-80
2022/10/10 08:42:55;;;;;;;11.70;4.80;;;;;;;22.05;34.32;100565.30;102520;1299;60160;-79
2022/10/10 08:45:43;;;;;;;10.90;3.80;;;;;;;21.93;34.42;100557.00;102483;1298;73721;-80
2022/10/10 08:48:31;;;;;;;10.60;3.70;;;;;;;21.71;34.58;100559.67;102519;1291;68610;-79
2022/10/10 08:51:31;;;;;;;10.70;4.40;;;;;;;21.35;35.00;100553.13;102558;1291;71316;-80
2022/10/10 08:54:22;;;;;;;8.70;3.50;;;;;;;20.89;35.78;100553.10;102621;1298;59288;-81
2022/10/10 08:57:30;;;;;;;11.70;3.60;;;;;;;20.66;36.41;100547.96;102714;1292;59372;-81
2022/10/10 09:00:23;;;;;;;9.30;3.00;;;;;;;21.57;34.95;100538.83;102434;1299;72625;-81
2022/10/10 09:03:35;;;;;;;9.50;3.60;;;;;;;21.88;34.05;100527.17;102528;1291;69375;-78
2022/10/10 09:07:23;;;;;;;8.00;3.40;;;;;;;21.97;34.01;100527.56;102418;1299;74463;-83
2022/10/10 09:10:29;;;;;;;14.10;4.00;;;;;;;22.50;33.65;100522.52;102609;1291;59677;-82
2022/10/10 09:13:43;;;;;;;9.50;4.10;;;;;;;23.42;32.43;100517.03;102644;1299;60081;-79
2022/10/10 09:16:46;;;;;;;8.80;3.70;;;;;;;23.82;31.72;100516.71;102423;1299;73940;-78
2022/10/10 09:20:19;;;;;;;9.50;3.30;;;;;;;23.68;31.32;100513.52;102839;1298;67739;-81
2022/10/10 09:23:22;;;;;;;9.00;3.60;;;;;;;23.05;31.87;100507.75;102838;1294;73467;-80
2022/10/10 09:26:22;;;;;;;10.40;3.60;;;;;;;23.46;31.57;100504.78;102749;1297;59266;-80
2022/10/10 09:29:32;;;;;;;9.20;3.60;;;;;;;23.54;30.66;100502.35;103414;1294;60709;-80
2022/10/10 09:32:26;;;;;;;9.80;3.10;;;;;;;23.62;30.38;100488.43;104117;1298;70817;-78
2022/10/10 09:35:21;;;;;;;8.60;3.40;;;;;;;23.86;30.00;100484.35;102578;1291;67532;-81
2022/10/10 09:38:31;;;;;;;8.80;3.10;;;;;;;24.68;29.25;100480.81;102490;1297;71192;-82
2022/10/10 09:41:40;;;;;;;9.60;2.90;;;;;;;24.90;28.04;100477.11;102803;1299;59656;-80
2022/10/10 09:44:29;;;;;;;8.20;3.10;;;;;;;24.35;28.55;100478.43;102688;1292;61203;-81
2022/10/10 09:47:17;;;;;;;8.10;3.00;;;;;;;24.18;28.54;100466.59;102684;1298;73009;-80
2022/10/10 09:50:06;;;;;;;9.60;3.40;;;;;;;23.74;29.25;100460.15;102389;1297;66589;-82
2022/10/10 09:52:56;;;;;;;10.50;3.50;;;;;;;23.98;29.46;100462.34;102530;1299;71449;-79
2022/10/10 09:55:46;;;;;;;9.80;3.20;;;;;;;24.52;28.92;100446.31;102580;1298;59068;-80
2022/10/10 09:58:54;;;;;;;8.40;3.10;;;;;;;24.82;28.11;100456.48;102702;1299;60039;-80
2022/10/10 10:02:01;;;;;;;8.90;2.80;;;;;;;24.90;27.97;100444.02;102599;1295;71869;-81
2022/10/10 10:04:51;;;;;;;9.50;3.20;;;;;;;25.23;27.10;100444.81;102624;1294;69248;-80
2022/10/10 10:07:46;;;;;;;8.30;2.60;;;;;;;25.18;27.29;100434.89;102543;1298;73589;-80
2022/10/10 10:10:34;;;;;;;9.30;3.00;;;;;;;25.30;26.91;100435.34;102929;1295;59199;-79
2022/10/10 10:13:42;;;;;;;8.50;2.80;;;;;;;25.45;26.60;100429.74;102800;1299;60097;-81
2022/10/10 10:16:38;;;;;;;7.90;3.00;;;;;;;25.49;26.44;100424.69;102308;1297;71823;-81
2022/10/10 10:19:42;;;;;;;8.50;2.60;;;;;;;25.50;26.42;100424.77;102729;1294;66657;-80
2022/10/10 10:22:38;;;;;;;8.80;2.90;;;;;;;24.91;26.70;100418.48;102933;1297;70300;-81
2022/10/10 10:25:37;;;;;;;7.60;3.00;;;;;;;24.71;26.73;100415.98;102534;1291;59634;-81
2022/10/10 10:28:26;;;;;;;7.80;2.40;;;;;;;24.58;26.95;100404.46;102620;1298;61711;-79
2022/10/10 10:32:22;;;;;;;7.70;2.50;;;;;;;24.40;26.63;100414.54;102486;1299;73822;-80
2022/10/10 10:35:27;;;;;;;8.30;2.80;;;;;;;24.51;27.33;100387.80;102139;1298;66368;-81
2022/10/10 10:38:48;;;;;;;6.40;2.30;;;;;;;24.75;27.03;100388.27;102075;1304;74239;-82
2022/10/10 10:41:50;;;;;;;8.90;3.00;;;;;;;25.06;26.71;100383.05;102268;1304;59466;-82
2022/10/10 10:45:12;;;;;;;7.60;3.00;;;;;;;25.15;26.30;100380.29;102241;1304;61751;-81
2022/10/10 10:48:20;;;;;;;7.90;3.00;;;;;;;24.97;26.55;100369.96;102037;1304;72180;-81
2022/10/10 10:51:42;;;;;;;7.80;2.60;;;;;;;25.04;26.26;100364.35;102269;1297;67545;-80
2022/10/10 10:54:54;;;;;;;10.40;2.80;;;;;;;25.18;25.89;100360.97;102451;1301;72306;-80
2022/10/10 10:58:01;;;;;;;7.80;3.20;;;;;;;25.00;26.42;100347.30;103549;1305;59507;-81
2022/10/10 11:01:42;;;;;;;6.70;2.90;;;;;;;24.90;26.37;100332.70;101912;1298;61115;-80
2022/10/10 11:05:18;;;;;;;8.00;2.90;;;;;;;24.57;26.80;100336.33;101933;1302;72018;-81
2022/10/10 11:08:49;;;;;;;8.80;3.40;;;;;;;23.90;27.61;100331.38;101822;1304;67534;-81
2022/10/10 11:12:18;;;;;;;10.30;3.20;;;;;;;23.40;28.29;100317.98;102659;1299;73100;-78
2022/10/10 11:15:23;;;;;;;8.60;3.30;;;;;;;23.45;29.03;100318.19;102573;1299;59349;-81
2022/10/10 11:18:44;;;;;;;8.20;3.50;;;;;;;23.17;29.41;100315.26;102539;1299;60106;-81
2022/10/10 11:21:36;;;;;;;10.30;3.40;;;;;;;22.85;30.36;100309.10;102919;1298;72525;-80
2022/10/10 11:24:51;;;;;;;10.00;3.90;;;;;;;22.53;30.60;100310.77;102577;1299;67505;-81
2022/10/10 11:27:49;;;;;;;10.60;3.70;;;;;;;21.91;31.44;100304.28;102769;1299;74026;-80
2022/10/10 11:30:52;;;;;;;8.10;3.90;;;;;;;21.45;32.18;100296.58;102516;1295;59270;-81
2022/10/10 11:33:46;;;;;;;9.70;3.50;;;;;;;20.73;33.02;100294.41;102739;1296;60059;-81
2022/10/10 11:36:39;;;;;;;10.50;3.60;;;;;;;20.81;33.17;100290.85;102457;1299;74165;-81
2022/10/10 11:40:00;;;;;;;8.80;3.70;;;;;;;20.71;33.86;100279.96;102551;1299;68110;-79
2022/10/10 11:42:55;;;;;;;10.80;3.20;;;;;;;20.73;34.24;100268.62;102505;1299;72331;-81
2022/10/10 11:45:47;;;;;;;9.50;3.70;;;;;;;20.53;34.36;100271.15;102479;1295;59273;-82
2022/10/10 11:48:52;;;;;;;9.40;3.50;;;;;;;19.83;34.78;100271.11;102490;1299;60686;-81
2022/10/10 11:51:55;;;;;;;8.50;3.40;;;;;;;19.30;36.00;100262.63;102274;1295;72630;-80
2022/10/10 11:55:25;;;;;;;8.40;3.40;;;;;;;18.88;37.05;100260.40;102540;1289;69341;-80
2022/10/10 11:58:26;;;;;;;9.80;3.50;;;;;;;18.44;37.37;100259.77;102549;1291;71326;-80
2022/10/10 12:01:21;;;;;;;8.40;3.40;;;;;;;18.43;37.91;100255.02;102618;1291;59283;-79
2022/10/10 12:04:09;;;;;;;8.60;3.40;;;;;;;18.34;38.37;100245.31;102277;1297;59403;-81
2022/10/10 12:07:18;;;;;;;11.00;3.20;;;;;;;18.37;38.59;100241.98;102534;1299;70389;-82
2022/10/10 12:10:17;;;;;;;9.80;3.50;;;;;;;18.45;38.74;100236.07;102384;1294;66635;-82
2022/10/10 12:13:58;;;;;;;8.80;3.50;;;;;;;18.31;39.02;100237.05;102748;1291;72312;-81
2022/10/10 12:16:47;;;;;;;8.20;3.50;;;;;;;17.96;39.53;100233.95;102939;1283;59384;-80
2022/10/10 12:19:38;;;;;;;7.80;3.30;;;;;;;17.77;40.42;100223.24;102876;1298;61647;-80
2022/10/10 12:22:28;;;;;;;8.60;3.60;;;;;;;17.49;41.01;100228.13;102796;1294;73507;-80
2022/10/10 12:25:34;;;;;;;8.00;3.30;;;;;;;17.32;41.84;100220.00;102311;1297;69252;-75
2022/10/10 12:28:36;;;;;;;9.30;3.20;;;;;;;17.04;42.78;100219.42;102508;1299;72774;-75
2022/10/10 12:31:33;;;;;;;10.40;3.80;;;;;;;16.59;43.74;100208.14;102336;1299;59265;-75
2022/10/10 12:34:46;;;;;;;10.30;3.70;;;;;;;16.28;44.85;100197.82;102535;1299;61150;-74
2022/10/10 12:37:35;;;;;;;9.90;3.90;;;;;;;16.15;45.54;100192.33;102357;1299;72562;-74
2022/10/10 12:40:23;;;;;;;8.80;3.80;;;;;;;15.88;46.85;100180.33;102574;1294;68194;-75
2022/10/10 12:43:41;;;;;;;9.90;3.60;;;;;;;15.66;47.59;100176.68;102249;1291;74140;-76
2022/10/10 12:46:31;;;;;;;11.80;4.00;;;;;;;15.42;48.92;100179.55;102563;1292;59287;-75
2022/10/10 12:49:23;;;;;;;9.70;4.00;;;;;;;15.23;49.75;100174.21;102348;1291;59972;-74
2022/10/10 12:52:19;;;;;;;9.30;3.50;;;;;;;15.16;50.26;100166.62;102632;1298;71266;-75
2022/10/10 12:55:36;;;;;;;11.70;3.40;;;;;;;15.13;50.69;100160.64;102293;1298;66201;-74
2022/10/10 12:58:28;;;;;;;9.10;3.60;;;;;;;14.99;50.82;100158.67;102246;1298;73221;-75
2022/10/10 13:01:29;;;;;;;9.70;3.60;;;;;;;14.87;51.40;100156.77;102344;1299;59390;-75
2022/10/10 13:04:19;;;;;;;10.60;3.60;;;;;;;14.78;51.69;100153.39;102271;1298;60402;-76
2022/10/10 13:07:14;;;;;;;9.40;3.80;;;;;;;14.72;52.02;100142.07;102404;1297;72163;-74
2022/10/10 13:10:20;;;;;;;9.60;3.60;;;;;;;14.70;52.55;100135.68;102459;1297;67187;-73
2022/10/10 13:13:19;;;;;;;12.10;4.00;;;;;;;14.60;52.88;100136.13;102926;1299;72600;-82
2022/10/10 13:16:13;;;;;;;13.10;4.10;;;;;;;14.55;53.52;100125.70;102460;1292;60146;-81
2022/10/10 13:19:01;;;;;;;9.70;4.00;;;;;;;14.54;53.81;100124.78;102333;1299;60066;-81
2022/10/10 13:21:54;;;;;;;8.50;3.50;;;;;;;14.51;53.97;100116.78;102409;1299;71902;-80
2022/10/10 13:24:44;;;;;;;8.30;3.20;;;;;;;14.44;54.50;100120.16;102311;1297;66600;-80
2022/10/10 13:27:34;;;;;;;10.90;4.00;;;;;;;14.38;54.58;100123.34;102487;1295;74102;-82